KAPN

Alpena County Regional Airport

Alpena, Michigan, USA
METAR KAPN 170654Z AUTO 35003KT 10SM BKN025 OVC032 M09/M11 A3026 RMK AO2 SLP263 T10941111
Observed Flight Rules
Dec-17 @ 06:54 UTC (an hour ago) Marginal Visual Flight Rules
Wind Visibility Clouds
350° at 3 knots 10 miles
  • Broken at 2,500' AGL
  • Overcast at 3,200' AGL
Temperatures Readings
Current -9°C / 16°F
Dewpoint -11°C / 12°F
Humidity 86%
Altimeter 30.26" Hg
Pressure 1026.3 hPa
Elevation 210
METAR KAPN 170654Z AUTO 35003KT 10SM BKN025 OVC032 M09/M11 A3026 RMK AO2 SLP263 T10941111
Observed Flight Rules
Dec-17 @ 06:54 UTC
(an hour ago)
MVFR
Wind Visibility
350° at 3 knots 10 miles
Clouds
  • Broken at 2,500' AGL
  • Overcast at 3,200' AGL
Temperature Dewpoint
-9°C / 16°F -11°C / 12°F
Humidity Altimeter Pressure
86% 30.26" Hg 1026.3 hPa